Time;durP1;ratioP1;P1;durP2;ratioP2;P2;SDS_P1;SDS_P2;PMS_P1;PMS_P2;Temp;Humidity;BMP_temperature;BMP_pressure;BME280_temperature;BME280_humidity;BME280_pressure;Samples;Min_cycle;Max_cycle;Signal;HPM_P1;HPM_P2
2023/08/07 00:02:06;;;;;;;8.68;3.75;;;16.50;99.90;;;;;;4916166;29;20027;-81
2023/08/07 00:04:32;;;;;;;5.82;3.55;;;16.50;99.90;;;;;;4915627;29;20055;-82
2023/08/07 00:06:58;;;;;;;9.70;3.45;;;16.40;99.90;;;;;;4916453;29;20024;-83
2023/08/07 00:09:24;;;;;;;6.00;3.08;;;16.40;99.90;;;;;;4916721;29;20040;-80
2023/08/07 00:11:50;;;;;;;7.15;3.60;;;16.40;99.90;;;;;;4916174;29;20505;-82
2023/08/07 00:14:15;;;;;;;5.90;3.60;;;16.40;99.90;;;;;;4916613;29;20123;-82
2023/08/07 00:16:41;;;;;;;7.53;2.97;;;16.40;99.90;;;;;;4916638;29;20020;-80
2023/08/07 00:19:07;;;;;;;4.80;2.85;;;16.30;99.90;;;;;;4916360;29;20029;-79
2023/08/07 00:21:35;;;;;;;6.28;2.60;;;16.30;99.90;;;;;;4915449;29;20024;-83
2023/08/07 00:24:01;;;;;;;8.35;3.30;;;16.30;99.90;;;;;;4916471;29;20039;-84
2023/08/07 00:26:27;;;;;;;6.50;3.30;;;16.30;99.90;;;;;;4916326;29;20036;-83
2023/08/07 00:28:53;;;;;;;8.93;3.55;;;16.30;99.90;;;;;;4916610;29;20481;-79
2023/08/07 00:31:19;;;;;;;7.55;3.58;;;16.30;99.90;;;;;;4917176;29;20032;-82
2023/08/07 00:33:45;;;;;;;7.93;3.75;;;16.30;99.90;;;;;;4916072;29;20032;-82
2023/08/07 00:36:11;;;;;;;8.55;4.18;;;16.20;99.90;;;;;;4917972;29;20074;-82
2023/08/07 00:38:37;;;;;;;12.23;4.43;;;16.20;99.90;;;;;;4901971;29;20024;-82
2023/08/07 00:41:03;;;;;;;8.32;3.60;;;16.20;99.90;;;;;;4917117;29;20039;-77
2023/08/07 00:43:29;;;;;;;8.30;3.92;;;16.20;99.90;;;;;;4920991;29;20024;-83
2023/08/07 00:45:55;;;;;;;6.80;3.33;;;16.30;99.90;;;;;;4926390;29;20042;-76
2023/08/07 00:48:21;;;;;;;6.18;3.70;;;16.40;99.90;;;;;;4926572;29;20035;-82
2023/08/07 00:50:49;;;;;;;7.75;3.20;;;16.40;99.90;;;;;;4911414;29;20110;-75
2023/08/07 00:53:15;;;;;;;7.22;3.17;;;16.40;99.90;;;;;;4908811;29;20032;-76
2023/08/07 00:55:42;;;;;;;9.23;3.30;;;16.30;99.90;;;;;;4926326;29;20032;-78
2023/08/07 00:58:07;;;;;;;9.60;3.15;;;16.40;99.90;;;;;;4930891;29;20036;-81
2023/08/07 01:00:34;;;;;;;6.50;3.35;;;16.40;99.90;;;;;;4907760;29;20400;-81
2023/08/07 01:03:02;;;;;;;7.50;3.70;;;16.40;99.90;;;;;;4925394;29;20029;-75
2023/08/07 01:05:27;;;;;;;6.32;3.38;;;16.30;99.90;;;;;;4898780;29;20097;-74
2023/08/07 01:07:54;;;;;;;7.10;3.63;;;16.30;99.90;;;;;;4914828;29;20025;-74
2023/08/07 01:10:31;;;;;;;10.68;3.33;;;16.30;99.90;;;;;;4931829;29;20052;-80
2023/08/07 01:13:18;;;;;;;10.07;3.90;;;16.30;99.90;;;;;;4903052;29;20039;-79
2023/08/07 01:15:46;;;;;;;8.90;3.30;;;16.30;99.90;;;;;;4935558;29;20040;-75
2023/08/07 01:18:13;;;;;;;4.18;2.55;;;16.40;99.90;;;;;;4933849;29;20028;-77
2023/08/07 01:20:39;;;;;;;4.80;2.38;;;16.30;99.90;;;;;;4932806;29;20370;-78
2023/08/07 01:23:06;;;;;;;5.00;2.60;;;16.30;99.90;;;;;;4932932;29;20066;-75
2023/08/07 01:25:32;;;;;;;4.43;2.80;;;16.20;99.90;;;;;;4932372;29;20423;-74
2023/08/07 01:28:11;;;;;;;5.68;2.85;;;16.10;99.90;;;;;;4934410;29;20086;-81
2023/08/07 01:30:40;;;;;;;5.68;3.40;;;16.10;99.90;;;;;;4931434;29;20123;-75
2023/08/07 01:33:23;;;;;;;7.63;3.38;;;16.10;99.90;;;;;;4919942;29;20053;-75
2023/08/07 01:35:53;;;;;;;9.32;3.50;;;16.10;99.90;;;;;;4933487;29;20483;-75
2023/08/07 01:38:22;;;;;;;8.65;3.72;;;16.00;99.90;;;;;;4908776;29;20053;-78
2023/08/07 01:40:49;;;;;;;9.90;3.95;;;16.10;99.90;;;;;;4929539;29;20075;-76
2023/08/07 01:43:14;;;;;;;12.23;4.22;;;16.10;99.90;;;;;;4916448;29;20017;-75
2023/08/07 01:45:40;;;;;;;6.00;3.30;;;16.00;99.90;;;;;;4917417;29;20047;-77
2023/08/07 01:48:07;;;;;;;8.10;3.63;;;16.10;99.90;;;;;;4934970;29;20025;-78
2023/08/07 01:50:34;;;;;;;9.73;3.70;;;16.00;99.90;;;;;;4918117;29;20032;-77
2023/08/07 01:53:02;;;;;;;8.68;3.63;;;16.00;99.90;;;;;;4918226;29;20040;-76
2023/08/07 01:55:28;;;;;;;6.85;3.33;;;16.00;99.90;;;;;;4918643;29;20035;-77
2023/08/07 01:57:54;;;;;;;10.23;4.40;;;16.00;99.90;;;;;;4933299;29;20036;-75
2023/08/07 02:00:20;;;;;;;7.40;3.78;;;16.10;99.90;;;;;;4934797;29;20111;-84
2023/08/07 02:02:46;;;;;;;8.43;3.63;;;16.10;99.90;;;;;;4934271;29;20036;-82
2023/08/07 02:05:13;;;;;;;7.50;3.63;;;16.10;99.90;;;;;;4936457;29;20055;-77
2023/08/07 02:07:40;;;;;;;10.13;3.42;;;16.10;99.90;;;;;;4934162;29;20055;-81
2023/08/07 02:10:06;;;;;;;10.65;4.63;;;16.10;99.90;;;;;;4934989;29;20056;-76
2023/08/07 02:12:32;;;;;;;11.00;4.38;;;16.10;99.90;;;;;;4922198;29;20040;-79
2023/08/07 02:14:59;;;;;;;7.57;4.03;;;16.10;99.90;;;;;;4935144;29;20036;-76
2023/08/07 02:17:27;;;;;;;5.30;3.42;;;16.20;99.90;;;;;;4932146;29;20035;-77
2023/08/07 02:19:53;;;;;;;7.03;3.80;;;16.20;99.90;;;;;;4929415;29;20047;-77
2023/08/07 02:22:19;;;;;;;8.23;3.95;;;16.10;99.90;;;;;;4927453;29;20024;-76
2023/08/07 02:24:45;;;;;;;7.20;4.10;;;16.10;99.90;;;;;;4914539;29;20119;-78
2023/08/07 02:27:11;;;;;;;12.45;4.65;;;16.20;99.90;;;;;;4915248;29;20032;-77
2023/08/07 02:29:37;;;;;;;9.05;4.20;;;16.10;99.90;;;;;;4914151;29;20031;-80
2023/08/07 02:32:04;;;;;;;6.20;4.10;;;16.10;99.90;;;;;;4917952;29;20040;-78
2023/08/07 02:34:30;;;;;;;12.63;4.85;;;16.20;99.90;;;;;;4914074;29;20016;-80
2023/08/07 02:36:58;;;;;;;6.88;4.05;;;16.20;99.90;;;;;;4908809;29;20032;-77
2023/08/07 02:39:25;;;;;;;10.82;3.92;;;16.20;99.90;;;;;;4915053;29;20504;-80
2023/08/07 02:41:51;;;;;;;10.05;4.05;;;16.20;99.90;;;;;;4922135;29;20531;-75
2023/08/07 02:44:20;;;;;;;9.52;4.45;;;16.10;99.90;;;;;;4929331;29;20040;-82
2023/08/07 02:46:46;;;;;;;7.05;3.70;;;16.10;99.90;;;;;;4910505;29;20008;-82
2023/08/07 02:49:12;;;;;;;5.53;3.50;;;16.20;99.90;;;;;;4915791;29;20120;-78
2023/08/07 02:51:38;;;;;;;5.88;3.67;;;16.20;99.90;;;;;;4911961;29;20080;-83
2023/08/07 02:54:04;;;;;;;8.98;3.78;;;16.20;99.90;;;;;;4915412;29;20031;-77
2023/08/07 02:56:30;;;;;;;8.88;4.40;;;16.10;99.90;;;;;;4896301;29;20033;-80
2023/08/07 02:58:58;;;;;;;10.52;4.32;;;16.10;99.90;;;;;;4909088;29;20029;-76
2023/08/07 03:01:24;;;;;;;7.07;3.45;;;16.00;99.90;;;;;;4899555;29;20084;-78
2023/08/07 03:03:50;;;;;;;9.57;4.05;;;16.00;99.90;;;;;;4908390;29;20020;-82
2023/08/07 03:06:16;;;;;;;7.03;3.50;;;16.00;99.90;;;;;;4912102;29;20037;-81
2023/08/07 03:08:42;;;;;;;9.20;4.30;;;16.00;99.90;;;;;;4907123;29;20024;-82
2023/08/07 03:11:08;;;;;;;5.18;3.83;;;16.00;99.90;;;;;;4906544;29;20064;-82
2023/08/07 03:13:34;;;;;;;11.10;3.88;;;15.90;99.90;;;;;;4891831;29;20032;-82
2023/08/07 03:16:01;;;;;;;8.45;3.65;;;15.90;99.90;;;;;;4908360;29;20024;-79
2023/08/07 03:18:28;;;;;;;8.05;3.75;;;16.00;99.90;;;;;;4913373;29;20048;-78
2023/08/07 03:20:58;;;;;;;8.57;3.85;;;15.90;99.90;;;;;;4908867;29;20046;-76
2023/08/07 03:23:25;;;;;;;13.48;5.32;;;16.00;99.90;;;;;;4917007;29;20039;-76
2023/08/07 03:26:04;;;;;;;11.38;4.25;;;16.00;99.90;;;;;;4910643;29;20028;-74
2023/08/07 03:28:30;;;;;;;10.13;4.47;;;16.00;99.90;;;;;;4912957;29;20503;-76
2023/08/07 03:30:56;;;;;;;19.83;8.13;;;16.00;99.90;;;;;;4915977;29;20020;-77
2023/08/07 03:33:22;;;;;;;11.63;4.70;;;16.00;99.90;;;;;;4916449;29;20101;-74
2023/08/07 03:35:48;;;;;;;11.45;5.63;;;16.10;99.90;;;;;;4917236;29;20008;-75
2023/08/07 03:38:14;;;;;;;10.40;4.80;;;16.00;99.90;;;;;;4937330;29;20024;-76
2023/08/07 03:40:40;;;;;;;8.68;4.50;;;16.00;99.90;;;;;;4919164;29;20024;-75
2023/08/07 03:43:08;;;;;;;10.35;4.68;;;16.10;99.90;;;;;;4936856;29;20028;-74
2023/08/07 03:45:33;;;;;;;11.02;4.40;;;16.10;99.90;;;;;;4937362;29;20048;-80
2023/08/07 03:47:59;;;;;;;10.38;5.05;;;16.10;99.90;;;;;;4934931;29;20023;-76
2023/08/07 03:50:25;;;;;;;8.15;4.72;;;16.10;99.90;;;;;;4934021;29;20040;-76
2023/08/07 03:52:51;;;;;;;12.80;5.50;;;16.10;99.90;;;;;;4901078;29;20027;-78
2023/08/07 03:55:18;;;;;;;12.38;5.90;;;16.60;99.90;;;;;;4919076;29;20036;-78
2023/08/07 03:57:44;;;;;;;9.32;4.82;;;16.90;99.90;;;;;;4934492;29;20031;-75
2023/08/07 04:00:11;;;;;;;8.77;4.13;;;17.50;99.90;;;;;;4904199;29;20092;-74
2023/08/07 04:02:40;;;;;;;10.73;4.53;;;18.00;99.90;;;;;;4927057;29;20040;-77
2023/08/07 04:05:08;;;;;;;9.02;4.30;;;17.50;99.90;;;;;;4918841;29;20081;-76
2023/08/07 04:07:33;;;;;;;10.18;4.20;;;17.80;99.90;;;;;;4918524;29;20044;-74
2023/08/07 04:09:59;;;;;;;6.55;3.15;;;18.70;99.90;;;;;;4934140;29;20033;-80
2023/08/07 04:12:25;;;;;;;7.18;4.07;;;19.00;99.90;;;;;;4934675;29;20111;-74
2023/08/07 04:14:51;;;;;;;8.23;3.60;;;18.90;99.90;;;;;;4933941;29;20032;-79
2023/08/07 04:17:18;;;;;;;6.60;3.03;;;20.10;99.90;;;;;;4936072;29;20091;-79
2023/08/07 04:19:44;;;;;;;9.80;4.18;;;21.00;99.90;;;;;;4932615;29;20396;-75
2023/08/07 04:22:09;;;;;;;12.07;3.47;;;21.70;99.90;;;;;;4926319;29;20028;-76
2023/08/07 04:24:36;;;;;;;7.95;3.15;;;22.60;99.90;;;;;;4924697;29;20048;-75
2023/08/07 04:27:02;;;;;;;6.15;2.88;;;23.50;99.00;;;;;;4921632;29;20487;-78
2023/08/07 04:29:28;;;;;;;4.32;2.30;;;23.80;98.10;;;;;;4905569;29;20071;-84
2023/08/07 04:31:54;;;;;;;5.75;2.90;;;24.70;95.00;;;;;;4910066;29;20036;-76
2023/08/07 04:34:20;;;;;;;8.02;2.42;;;25.00;91.80;;;;;;4913899;29;20121;-84
2023/08/07 04:36:45;;;;;;;6.63;3.03;;;24.70;91.30;;;;;;4917022;29;20024;-84
2023/08/07 04:39:13;;;;;;;6.20;2.47;;;25.10;92.10;;;;;;4916361;29;20051;-79
2023/08/07 04:41:39;;;;;;;5.18;2.50;;;25.90;91.40;;;;;;4917049;29;20095;-78
2023/08/07 04:44:05;;;;;;;4.60;2.78;;;26.00;91.10;;;;;;4915356;29;20039;-80
2023/08/07 04:46:33;;;;;;;9.93;2.85;;;26.90;93.40;;;;;;4915927;29;20567;-75
2023/08/07 04:48:59;;;;;;;7.32;2.40;;;27.10;87.90;;;;;;4915368;29;20477;-82
2023/08/07 04:51:25;;;;;;;6.75;1.77;;;27.10;87.00;;;;;;4915971;29;20036;-78
2023/08/07 04:53:51;;;;;;;8.30;2.75;;;25.60;84.70;;;;;;4915510;29;20023;-82
2023/08/07 04:56:17;;;;;;;5.38;2.65;;;26.00;86.70;;;;;;4919642;29;20035;-75
2023/08/07 04:58:43;;;;;;;3.42;2.20;;;26.60;85.70;;;;;;4916439;29;20494;-79
2023/08/07 05:01:08;;;;;;;5.97;2.10;;;27.40;84.30;;;;;;4925142;29;20107;-75
2023/08/07 05:03:34;;;;;;;7.90;2.42;;;27.50;84.50;;;;;;4915666;29;20397;-75
2023/08/07 05:06:01;;;;;;;2.60;2.10;;;28.30;83.20;;;;;;4915829;29;20040;-79
2023/08/07 05:08:27;;;;;;;5.78;1.98;;;28.20;81.00;;;;;;4898871;29;20042;-79
2023/08/07 05:10:53;;;;;;;4.18;1.70;;;27.70;81.80;;;;;;4916277;29;20452;-80
2023/08/07 05:13:19;;;;;;;5.38;2.42;;;26.50;83.40;;;;;;4918796;29;20119;-81
2023/08/07 05:15:47;;;;;;;5.60;2.10;;;25.80;85.40;;;;;;4913952;29;20132;-79
2023/08/07 05:18:13;;;;;;;3.38;2.15;;;24.90;87.00;;;;;;4915572;29;20052;-74
2023/08/07 05:20:39;;;;;;;7.78;2.40;;;24.30;89.10;;;;;;4887426;29;20037;-77
2023/08/07 05:23:05;;;;;;;5.05;2.30;;;23.80;90.10;;;;;;4914117;29;20076;-74
2023/08/07 05:25:31;;;;;;;5.28;1.55;;;23.40;91.20;;;;;;4902671;29;20055;-74
2023/08/07 05:27:57;;;;;;;4.38;1.98;;;23.00;91.50;;;;;;4906525;29;20033;-77
2023/08/07 05:30:23;;;;;;;5.03;2.20;;;22.70;92.50;;;;;;4911456;29;20032;-74
2023/08/07 05:32:49;;;;;;;7.03;3.22;;;22.50;93.30;;;;;;4902046;29;20127;-78
2023/08/07 05:35:15;;;;;;;10.45;5.43;;;22.10;94.20;;;;;;4921000;29;20160;-74
2023/08/07 05:37:40;;;;;;;11.15;7.07;;;21.80;93.70;;;;;;4925434;29;20428;-76
2023/08/07 05:40:07;;;;;;;15.90;7.10;;;21.60;95.40;;;;;;4926035;29;20031;-76
2023/08/07 05:42:33;;;;;;;13.68;7.88;;;21.80;97.80;;;;;;4942589;29;20039;-78
2023/08/07 05:44:59;;;;;;;15.65;7.30;;;21.90;97.80;;;;;;4941652;29;20383;-81
2023/08/07 05:47:25;;;;;;;18.92;7.70;;;21.90;96.70;;;;;;4892694;29;20032;-79
2023/08/07 05:49:51;;;;;;;15.65;8.07;;;22.10;97.40;;;;;;4924606;29;20084;-79
2023/08/07 05:52:17;;;;;;;19.52;8.15;;;22.10;97.10;;;;;;4922484;29;20028;-78
2023/08/07 05:54:44;;;;;;;15.73;8.10;;;21.70;97.30;;;;;;4920442;29;20032;-78
2023/08/07 05:57:10;;;;;;;6.10;3.38;;;21.70;96.00;;;;;;4928126;29;20055;-76
2023/08/07 05:59:36;;;;;;;4.35;2.30;;;21.20;98.80;;;;;;4920683;29;20059;-79
2023/08/07 06:02:03;;;;;;;5.72;2.53;;;21.60;99.90;;;;;;4919664;29;20035;-76
2023/08/07 06:04:29;;;;;;;4.78;1.73;;;21.50;99.90;;;;;;4907194;29;20043;-81
2023/08/07 06:06:55;;;;;;;3.70;1.65;;;21.40;99.90;;;;;;4908384;29;20051;-77
2023/08/07 06:09:21;;;;;;;11.40;1.80;;;21.10;99.90;;;;;;4919354;29;20028;-80
2023/08/07 06:11:48;;;;;;;2.50;1.77;;;21.40;99.90;;;;;;4925911;29;20055;-73
2023/08/07 06:14:14;;;;;;;4.15;1.90;;;20.90;99.90;;;;;;4919343;29;20123;-77
2023/08/07 06:16:40;;;;;;;5.45;1.70;;;21.00;99.90;;;;;;4906383;29;20033;-77
2023/08/07 06:19:06;;;;;;;2.50;1.50;;;20.80;99.90;;;;;;4900268;29;20110;-80
2023/08/07 06:21:32;;;;;;;2.88;1.55;;;21.20;99.90;;;;;;4908332;29;20028;-74
2023/08/07 06:23:58;;;;;;;4.53;1.83;;;21.30;99.90;;;;;;4909793;29;20056;-76
2023/08/07 06:26:24;;;;;;;3.45;2.00;;;21.50;99.90;;;;;;4909623;29;20492;-79
2023/08/07 06:28:50;;;;;;;3.60;1.40;;;21.60;99.90;;;;;;4905918;29;20384;-74
2023/08/07 06:31:16;;;;;;;5.22;2.05;;;21.80;99.90;;;;;;4918111;29;20052;-73
2023/08/07 06:33:42;;;;;;;2.55;1.52;;;22.00;99.90;;;;;;4918037;29;20149;-74
2023/08/07 06:36:08;;;;;;;3.63;1.70;;;21.70;99.90;;;;;;4917358;29;20056;-79
2023/08/07 06:38:34;;;;;;;4.82;2.80;;;21.80;99.90;;;;;;4917867;29;20032;-78
2023/08/07 06:41:01;;;;;;;4.97;2.22;;;21.80;99.90;;;;;;4917994;29;20099;-78
2023/08/07 06:43:27;;;;;;;2.20;1.60;;;21.60;99.90;;;;;;4917653;29;20107;-74
2023/08/07 06:45:54;;;;;;;2.45;1.55;;;22.00;99.90;;;;;;4917104;29;20147;-78
2023/08/07 06:48:20;;;;;;;3.65;1.50;;;22.10;99.90;;;;;;4917731;29;20028;-73
2023/08/07 06:50:50;;;;;;;2.53;1.40;;;21.80;99.90;;;;;;4918537;29;20075;-74
2023/08/07 06:53:16;;;;;;;4.10;1.85;;;22.20;99.90;;;;;;4917639;29;20028;-74
2023/08/07 06:55:42;;;;;;;2.67;1.75;;;21.70;98.70;;;;;;4918165;29;20040;-74
2023/08/07 06:58:08;;;;;;;2.28;1.50;;;21.80;98.90;;;;;;4917882;29;20425;-77
2023/08/07 07:00:38;;;;;;;3.45;1.30;;;22.20;99.90;;;;;;4917646;29;20115;-73
2023/08/07 07:03:04;;;;;;;4.55;1.60;;;22.70;99.90;;;;;;4917671;29;20520;-74
2023/08/07 07:05:32;;;;;;;2.75;1.77;;;23.10;99.90;;;;;;4917235;29;20459;-73
2023/08/07 07:07:58;;;;;;;6.20;1.77;;;23.50;97.90;;;;;;4898551;29;20377;-77
2023/08/07 07:10:24;;;;;;;5.30;1.58;;;23.30;97.60;;;;;;4917537;29;20157;-74
2023/08/07 07:12:49;;;;;;;3.50;1.55;;;23.70;99.20;;;;;;4917359;29;20095;-78
2023/08/07 07:15:15;;;;;;;1.63;1.00;;;23.60;95.40;;;;;;4916070;29;20048;-77
2023/08/07 07:17:41;;;;;;;1.42;1.13;;;23.70;94.00;;;;;;4916069;29;20036;-76
2023/08/07 07:20:09;;;;;;;1.20;1.10;;;23.80;94.20;;;;;;4917145;29;20046;-74
2023/08/07 07:22:35;;;;;;;2.70;1.33;;;24.10;93.90;;;;;;4915675;29;20028;-74
2023/08/07 07:25:01;;;;;;;1.83;1.20;;;24.40;94.20;;;;;;4917358;29;20048;-75
2023/08/07 07:27:27;;;;;;;2.67;1.20;;;23.90;92.30;;;;;;4916612;29;20028;-73
2023/08/07 07:29:53;;;;;;;1.60;1.25;;;23.90;93.80;;;;;;4903537;29;20392;-76
2023/08/07 07:32:19;;;;;;;1.73;1.13;;;23.10;93.10;;;;;;4898299;29;20078;-72
2023/08/07 07:34:45;;;;;;;1.48;1.10;;;23.90;95.10;;;;;;4905515;29;20059;-76
2023/08/07 07:37:11;;;;;;;2.75;1.35;;;24.40;94.60;;;;;;4906813;29;20060;-73
2023/08/07 07:39:36;;;;;;;2.00;1.20;;;24.70;93.70;;;;;;4901985;29;20031;-76
2023/08/07 07:42:04;;;;;;;1.52;1.13;;;25.00;93.20;;;;;;4916746;29;20032;-77
2023/08/07 07:44:31;;;;;;;3.00;1.17;;;25.30;94.00;;;;;;4916806;29;20416;-74
2023/08/07 07:46:57;;;;;;;1.52;0.90;;;25.70;92.80;;;;;;4915731;29;20052;-80
2023/08/07 07:49:23;;;;;;;1.40;0.90;;;26.00;92.30;;;;;;4920383;29;20028;-81
2023/08/07 07:51:49;;;;;;;3.25;1.20;;;25.40;90.50;;;;;;4918033;29;20076;-79
2023/08/07 07:54:18;;;;;;;2.78;1.20;;;25.10;90.30;;;;;;4900543;29;20035;-82
2023/08/07 07:56:44;;;;;;;1.70;0.90;;;25.40;90.10;;;;;;4910354;29;20032;-79
2023/08/07 07:59:10;;;;;;;4.18;1.02;;;25.40;90.10;;;;;;4918061;29;20111;-77
2023/08/07 08:01:36;;;;;;;2.13;0.90;;;25.20;90.00;;;;;;4916842;29;20374;-79
2023/08/07 08:04:02;;;;;;;3.05;1.30;;;24.60;90.10;;;;;;4918788;29;20032;-77
2023/08/07 08:06:27;;;;;;;1.85;0.75;;;24.80;90.60;;;;;;4917177;29;20025;-74
2023/08/07 08:08:53;;;;;;;2.25;1.30;;;25.00;89.70;;;;;;4916827;29;20033;-78
2023/08/07 08:11:19;;;;;;;3.97;1.02;;;24.90;90.20;;;;;;4906793;29;20055;-77
2023/08/07 08:13:45;;;;;;;1.30;0.98;;;24.90;89.50;;;;;;4897526;29;20029;-78
2023/08/07 08:16:11;;;;;;;3.03;1.20;;;25.10;90.00;;;;;;4898135;29;20032;-74
2023/08/07 08:18:37;;;;;;;1.25;1.00;;;25.10;90.50;;;;;;4907325;29;20116;-78
2023/08/07 08:21:03;;;;;;;2.22;1.08;;;25.50;91.80;;;;;;4898301;29;20111;-78
2023/08/07 08:23:29;;;;;;;2.13;0.80;;;25.60;88.20;;;;;;4898264;29;20031;-78
2023/08/07 08:25:55;;;;;;;1.90;1.08;;;25.70;88.40;;;;;;4898264;29;20033;-80
2023/08/07 08:28:21;;;;;;;1.50;1.00;;;25.90;90.00;;;;;;4898058;29;20385;-80
2023/08/07 08:30:48;;;;;;;1.70;0.90;;;25.80;86.90;;;;;;4881670;29;20397;-80
2023/08/07 08:33:14;;;;;;;3.08;1.42;;;25.60;85.10;;;;;;4908990;29;20092;-79
2023/08/07 08:35:41;;;;;;;1.90;1.33;;;25.20;85.50;;;;;;4898091;29;20016;-82
2023/08/07 08:38:07;;;;;;;8.25;1.30;;;25.30;85.50;;;;;;4897121;29;20107;-81
2023/08/07 08:40:34;;;;;;;0.93;0.75;;;25.10;85.50;;;;;;4897606;29;20081;-79
2023/08/07 08:43:00;;;;;;;1.42;1.00;;;24.70;86.30;;;;;;4880711;29;20403;-75
2023/08/07 08:45:27;;;;;;;1.80;0.88;;;24.90;86.70;;;;;;4896709;29;20040;-79
2023/08/07 08:48:01;;;;;;;0.88;0.82;;;24.80;88.00;;;;;;4905323;29;20036;-73
2023/08/07 08:50:28;;;;;;;1.98;1.00;;;24.50;86.10;;;;;;4895055;29;20060;-77
2023/08/07 08:52:56;;;;;;;2.35;1.05;;;24.80;90.70;;;;;;4888029;29;20032;-77
2023/08/07 08:55:22;;;;;;;0.80;0.80;;;24.70;87.60;;;;;;4897575;29;20033;-77
2023/08/07 08:57:49;;;;;;;3.60;1.05;;;24.90;90.10;;;;;;4897613;29;20021;-78
2023/08/07 09:00:22;;;;;;;3.25;1.00;;;25.20;89.50;;;;;;4879892;29;20426;-79
2023/08/07 09:02:50;;;;;;;1.60;1.10;;;25.40;88.40;;;;;;4896585;29;20037;-78
2023/08/07 09:05:18;;;;;;;2.55;1.00;;;25.00;84.40;;;;;;4895563;29;20167;-77
2023/08/07 09:07:46;;;;;;;1.45;1.17;;;25.10;85.60;;;;;;4897271;29;20024;-75
2023/08/07 09:10:14;;;;;;;1.85;1.27;;;25.20;86.90;;;;;;4898391;29;20366;-76
2023/08/07 09:12:42;;;;;;;1.83;1.05;;;25.50;89.00;;;;;;4905872;29;20029;-75
2023/08/07 09:15:10;;;;;;;2.03;1.55;;;25.90;89.80;;;;;;4908856;29;20028;-73
2023/08/07 09:17:41;;;;;;;2.15;0.70;;;25.90;83.70;;;;;;4910082;29;20028;-79
2023/08/07 09:20:11;;;;;;;2.35;0.88;;;26.00;83.90;;;;;;4905834;29;20025;-79
2023/08/07 09:22:39;;;;;;;1.45;0.77;;;26.00;85.60;;;;;;4905666;29;20032;-78
2023/08/07 09:25:06;;;;;;;1.30;0.90;;;25.80;80.40;;;;;;4909697;29;20035;-75
2023/08/07 09:27:32;;;;;;;0.80;0.70;;;26.10;83.00;;;;;;4901856;29;20346;-76
2023/08/07 09:29:59;;;;;;;0.70;0.70;;;25.70;79.30;;;;;;4909605;29;20032;-77
2023/08/07 09:32:25;;;;;;;2.63;0.80;;;25.20;80.00;;;;;;4912262;29;20028;-78
2023/08/07 09:34:54;;;;;;;1.10;0.80;;;25.70;80.30;;;;;;4915846;29;20040;-77
2023/08/07 09:37:19;;;;;;;2.95;1.10;;;25.80;83.50;;;;;;4917691;29;20055;-76
2023/08/07 09:39:47;;;;;;;1.40;0.90;;;25.80;80.40;;;;;;4920699;29;20421;-76
2023/08/07 09:42:16;;;;;;;4.57;1.15;;;25.60;81.40;;;;;;4916324;29;20473;-76
2023/08/07 09:44:44;;;;;;;3.72;1.42;;;25.80;82.80;;;;;;4922776;29;20044;-78
2023/08/07 09:47:23;;;;;;;2.90;1.20;;;25.80;81.50;;;;;;4875818;29;20106;-79
2023/08/07 09:49:54;;;;;;;2.13;1.10;;;26.20;84.80;;;;;;4917764;29;20116;-79
2023/08/07 09:52:20;;;;;;;1.67;1.00;;;26.90;86.40;;;;;;4906074;29;20036;-73
2023/08/07 09:54:46;;;;;;;3.72;1.55;;;26.90;83.70;;;;;;4915139;29;20028;-74
2023/08/07 09:57:13;;;;;;;6.30;0.90;;;27.10;86.70;;;;;;4914905;29;20472;-78
2023/08/07 09:59:40;;;;;;;1.73;0.90;;;25.70;79.60;;;;;;4915313;29;20127;-78
2023/08/07 10:02:06;;;;;;;3.47;1.08;;;26.30;81.40;;;;;;4906578;29;20033;-72
2023/08/07 10:04:32;;;;;;;1.67;1.20;;;25.80;80.90;;;;;;4911955;29;20076;-72
2023/08/07 10:07:01;;;;;;;2.28;1.23;;;26.30;87.20;;;;;;4919727;29;20055;-75
2023/08/07 10:09:27;;;;;;;1.90;1.13;;;26.50;83.20;;;;;;4914588;29;20028;-72
2023/08/07 10:11:54;;;;;;;4.40;1.20;;;26.60;86.00;;;;;;4899220;29;20063;-72
2023/08/07 10:14:21;;;;;;;1.08;0.80;;;26.50;84.20;;;;;;4898537;29;20036;-75
2023/08/07 10:16:48;;;;;;;1.00;0.90;;;25.80;80.70;;;;;;4902631;29;20365;-73
2023/08/07 10:19:14;;;;;;;1.58;1.13;;;25.50;80.80;;;;;;4914394;29;20043;-72
2023/08/07 10:21:41;;;;;;;4.32;2.65;;;26.00;85.20;;;;;;4918675;29;20031;-72
2023/08/07 10:24:08;;;;;;;1.55;1.00;;;26.30;85.00;;;;;;4921935;29;20499;-72
2023/08/07 10:26:41;;;;;;;1.33;1.20;;;26.60;82.20;;;;;;4908913;29;20028;-72
2023/08/07 10:29:11;;;;;;;2.17;0.95;;;26.40;79.20;;;;;;4923105;29;20024;-77
2023/08/07 10:31:40;;;;;;;2.97;1.23;;;26.50;83.60;;;;;;4918838;29;20021;-71
2023/08/07 10:34:06;;;;;;;1.65;0.90;;;26.60;80.60;;;;;;4923546;29;20516;-72
2023/08/07 10:36:33;;;;;;;2.80;1.00;;;26.40;80.80;;;;;;4926184;29;20114;-76
2023/08/07 10:39:17;;;;;;;2.97;1.20;;;25.70;79.80;;;;;;4920119;29;20035;-72
2023/08/07 10:41:47;;;;;;;2.42;1.00;;;25.00;77.80;;;;;;4908455;29;20032;-74
2023/08/07 10:44:21;;;;;;;1.20;1.02;;;24.90;79.00;;;;;;4915044;29;20052;-74
2023/08/07 10:46:52;;;;;;;3.05;1.00;;;25.00;79.50;;;;;;4917980;29;20124;-74
2023/08/07 10:49:38;;;;;;;2.72;1.20;;;24.90;82.40;;;;;;4913480;29;20028;-73
2023/08/07 10:52:12;;;;;;;2.90;0.85;;;24.80;80.80;;;;;;4918597;29;20032;-74
2023/08/07 11:03:05;;;;;;;3.15;0.88;;;24.50;79.40;;;;;;5061718;23;20059;-72
2023/08/07 11:05:31;;;;;;;1.15;0.90;;;24.60;80.00;;;;;;4874311;29;20090;-74
2023/08/07 11:07:58;;;;;;;2.60;1.25;;;24.80;80.20;;;;;;4880240;29;20108;-76
2023/08/07 11:10:24;;;;;;;1.27;0.82;;;25.20;79.60;;;;;;4879146;29;20048;-77
2023/08/07 11:12:50;;;;;;;2.13;0.85;;;25.50;80.10;;;;;;4865114;29;20017;-72
2023/08/07 11:15:16;;;;;;;1.77;0.98;;;25.20;76.40;;;;;;4875294;29;20033;-76
2023/08/07 11:17:42;;;;;;;2.42;1.20;;;24.90;75.20;;;;;;4879842;29;20035;-73
2023/08/07 11:20:10;;;;;;;4.22;1.27;;;25.00;77.40;;;;;;4880028;29;20071;-76
2023/08/07 11:22:37;;;;;;;2.42;1.33;;;25.00;79.20;;;;;;4879939;29;20049;-73
2023/08/07 11:25:04;;;;;;;1.80;1.38;;;24.80;80.90;;;;;;4879615;29;20048;-73
2023/08/07 11:27:30;;;;;;;2.38;1.25;;;25.00;81.80;;;;;;4879435;29;20017;-71
2023/08/07 11:29:56;;;;;;;2.67;1.45;;;24.90;77.60;;;;;;4879919;29;20055;-70
2023/08/07 11:32:22;;;;;;;2.60;1.23;;;24.80;79.00;;;;;;4879117;29;20029;-71
2023/08/07 11:34:51;;;;;;;1.83;0.90;;;24.60;78.00;;;;;;4879598;29;20052;-70
2023/08/07 11:37:20;;;;;;;3.60;1.50;;;24.80;78.90;;;;;;4879924;29;20033;-74
2023/08/07 11:39:46;;;;;;;2.10;1.02;;;24.90;79.10;;;;;;4879547;29;20075;-73
2023/08/07 11:42:13;;;;;;;1.67;0.90;;;24.80;81.70;;;;;;4879730;29;20081;-70
2023/08/07 11:44:40;;;;;;;3.05;0.80;;;25.00;83.60;;;;;;4879352;29;20033;-72
2023/08/07 11:47:06;;;;;;;1.08;0.75;;;25.20;80.50;;;;;;4879281;29;20100;-72
2023/08/07 11:49:32;;;;;;;1.42;1.13;;;25.50;80.30;;;;;;4879275;29;20115;-73
2023/08/07 11:51:58;;;;;;;1.35;0.85;;;25.40;80.10;;;;;;4879504;29;20537;-74
2023/08/07 11:54:24;;;;;;;1.70;1.10;;;25.60;78.10;;;;;;4878878;29;20406;-70
2023/08/07 11:56:49;;;;;;;2.35;1.15;;;25.80;80.20;;;;;;4879348;29;20021;-74
2023/08/07 11:59:19;;;;;;;2.38;1.00;;;25.80;77.10;;;;;;4862874;29;20108;-74
2023/08/07 12:01:46;;;;;;;2.50;0.98;;;25.90;76.00;;;;;;4879210;29;20029;-72
2023/08/07 12:04:12;;;;;;;1.90;1.10;;;26.00;77.30;;;;;;4881894;29;20048;-69
2023/08/07 12:06:43;;;;;;;0.95;0.90;;;25.80;79.10;;;;;;4897691;29;20044;-73
2023/08/07 12:09:12;;;;;;;1.40;0.95;;;25.70;79.00;;;;;;4897665;29;20440;-74
2023/08/07 12:11:39;;;;;;;2.03;1.10;;;25.60;79.10;;;;;;4897767;29;20036;-71
2023/08/07 12:14:05;;;;;;;1.50;1.30;;;25.40;80.10;;;;;;4897664;29;20041;-74
2023/08/07 12:16:34;;;;;;;2.25;1.15;;;25.40;78.60;;;;;;4897590;29;20028;-70
2023/08/07 12:19:01;;;;;;;5.13;2.10;;;25.40;81.20;;;;;;4879962;29;20041;-70
2023/08/07 12:21:28;;;;;;;1.50;1.05;;;25.70;78.90;;;;;;4897679;29;20107;-71
2023/08/07 12:23:57;;;;;;;5.72;1.67;;;25.70;77.10;;;;;;4897812;29;20044;-72
2023/08/07 12:26:23;;;;;;;1.55;1.10;;;25.80;80.00;;;;;;4898020;29;20092;-74
2023/08/07 12:28:49;;;;;;;3.63;0.95;;;25.80;77.10;;;;;;4897904;29;20029;-74
2023/08/07 12:31:17;;;;;;;2.30;1.00;;;25.90;77.50;;;;;;4897638;29;20035;-75
2023/08/07 12:33:43;;;;;;;1.27;1.00;;;25.70;78.10;;;;;;4898010;29;20037;-72
2023/08/07 12:36:10;;;;;;;2.17;1.42;;;25.80;78.10;;;;;;4898122;29;20028;-75
2023/08/07 12:38:36;;;;;;;1.85;1.17;;;25.80;77.60;;;;;;4895788;29;20108;-76
2023/08/07 12:41:03;;;;;;;2.30;1.00;;;25.90;77.70;;;;;;4895269;29;20477;-77
2023/08/07 12:43:29;;;;;;;2.97;1.08;;;25.90;75.90;;;;;;4897906;29;20484;-75
2023/08/07 12:45:55;;;;;;;3.03;0.80;;;26.00;78.10;;;;;;4897154;29;20084;-75
2023/08/07 12:48:20;;;;;;;2.15;0.90;;;26.00;79.30;;;;;;4897892;29;20094;-76
2023/08/07 12:50:46;;;;;;;12.10;1.40;;;26.00;77.30;;;;;;4899271;29;20029;-75
2023/08/07 12:53:12;;;;;;;4.07;1.10;;;25.90;75.40;;;;;;4898073;29;20029;-76